Time;durP1;ratioP1;P1;durP2;ratioP2;P2;SDS_P1;SDS_P2;PMS_P1;PMS_P2;Temp;Humidity;BMP_temperature;BMP_pressure;BME280_temperature;BME280_humidity;BME280_pressure;Samples;Min_cycle;Max_cycle;Signal;HPM_P1;HPM_P2
2022/09/15 00:01:00;;;;;;;2.37;2.13;;;18.10;99.90;;;;;;5031414;28;20476;-67
2022/09/15 00:03:28;;;;;;;3.47;1.80;;;18.00;99.90;;;;;;5094909;23;20515;-94
2022/09/15 00:05:55;;;;;;;6.90;1.93;;;18.00;99.90;;;;;;5088300;28;20438;-94
2022/09/15 00:08:23;;;;;;;3.17;2.20;;;17.90;99.90;;;;;;5097054;28;20483;-94
2022/09/15 00:10:51;;;;;;;1.80;1.70;;;18.00;99.90;;;;;;5097541;28;20537;-94
2022/09/15 00:13:19;;;;;;;2.07;1.60;;;17.90;99.90;;;;;;5095252;28;20475;-94
2022/09/15 00:15:46;;;;;;;2.13;1.80;;;17.90;99.90;;;;;;5095186;28;20478;-94
2022/09/15 00:18:13;;;;;;;2.20;1.40;;;17.90;99.90;;;;;;5090787;22;20496;-70
2022/09/15 00:20:42;;;;;;;1.47;1.37;;;17.90;99.90;;;;;;5052611;28;20448;-69
2022/09/15 00:23:10;;;;;;;2.23;1.50;;;17.90;99.90;;;;;;5052811;28;20476;-70
2022/09/15 00:25:42;;;;;;;1.50;1.33;;;17.90;99.90;;;;;;5053235;28;20456;-70
2022/09/15 00:28:09;;;;;;;1.60;1.50;;;17.90;99.90;;;;;;5052595;28;20484;-69
2022/09/15 00:30:40;;;;;;;2.07;1.67;;;17.90;99.90;;;;;;5053198;28;20464;-70
2022/09/15 00:33:07;;;;;;;2.33;1.80;;;17.90;99.90;;;;;;5052878;28;20507;-70
2022/09/15 00:35:37;;;;;;;1.73;1.60;;;17.90;99.90;;;;;;5053135;28;20546;-70
2022/09/15 00:38:06;;;;;;;3.30;1.83;;;17.90;99.90;;;;;;5052509;28;20492;-69
2022/09/15 00:40:33;;;;;;;2.60;1.40;;;17.90;99.90;;;;;;5052702;28;20460;-69
2022/09/15 00:43:00;;;;;;;2.03;1.50;;;17.90;99.90;;;;;;5052720;28;20854;-70
2022/09/15 00:45:27;;;;;;;1.80;1.60;;;17.90;99.90;;;;;;5052895;28;20467;-70
2022/09/15 00:47:53;;;;;;;1.47;1.37;;;17.90;99.90;;;;;;5052625;28;20898;-69
2022/09/15 00:50:20;;;;;;;1.50;1.40;;;17.90;99.90;;;;;;5052334;28;20464;-70
2022/09/15 00:52:52;;;;;;;2.10;1.57;;;17.90;99.90;;;;;;5052425;28;20484;-69
2022/09/15 00:55:25;;;;;;;1.60;1.30;;;17.90;99.90;;;;;;5053130;28;20471;-69
2022/09/15 00:57:55;;;;;;;1.70;1.60;;;17.90;99.90;;;;;;5052540;28;20469;-69
2022/09/15 01:00:24;;;;;;;1.50;1.40;;;17.90;99.90;;;;;;5051417;28;20467;-70
2022/09/15 01:02:51;;;;;;;1.50;1.13;;;17.90;99.90;;;;;;5052148;28;20480;-70
2022/09/15 01:05:21;;;;;;;1.20;1.10;;;17.90;99.90;;;;;;5052299;28;20471;-69
2022/09/15 01:07:51;;;;;;;1.60;1.50;;;17.90;99.90;;;;;;5052295;28;20950;-69
2022/09/15 01:10:23;;;;;;;1.50;1.40;;;17.90;99.90;;;;;;5051959;28;20487;-69
2022/09/15 01:12:50;;;;;;;2.23;1.70;;;17.90;99.90;;;;;;5052141;28;20487;-70
2022/09/15 01:15:17;;;;;;;5.37;1.70;;;17.90;99.90;;;;;;5052312;28;20460;-70
2022/09/15 01:17:57;;;;;;;3.37;1.63;;;17.90;99.90;;;;;;5052410;28;20471;-70
2022/09/15 01:20:57;;;;;;;1.40;1.30;;;17.80;99.90;;;;;;5051648;28;20955;-70
2022/09/15 01:23:58;;;;;;;2.20;2.00;;;17.80;99.90;;;;;;5052030;28;20492;-70
2022/09/15 01:26:51;;;;;;;1.40;1.30;;;17.80;99.90;;;;;;5052478;28;20931;-70
2022/09/15 01:29:51;;;;;;;2.00;1.80;;;17.80;99.90;;;;;;5051483;28;20480;-69
2022/09/15 01:35:19;;;;;;;1.87;1.57;;;17.80;99.90;;;;;;5052168;28;20439;-70
2022/09/15 01:37:52;;;;;;;1.87;1.40;;;17.80;99.90;;;;;;5051900;28;20872;-70
2022/09/15 01:40:23;;;;;;;4.70;1.40;;;17.70;99.90;;;;;;5051582;28;20460;-69
2022/09/15 01:42:50;;;;;;;1.60;1.37;;;17.70;99.90;;;;;;5051337;28;20530;-70
2022/09/15 01:45:23;;;;;;;1.90;1.53;;;17.70;99.90;;;;;;5052076;28;20464;-70
2022/09/15 01:47:52;;;;;;;1.63;1.53;;;17.70;99.90;;;;;;5051476;28;20514;-69
2022/09/15 01:50:24;;;;;;;1.83;1.40;;;17.60;99.90;;;;;;5051101;28;20880;-69
2022/09/15 01:52:55;;;;;;;1.30;1.20;;;17.60;99.90;;;;;;5051205;28;20491;-70
2022/09/15 01:55:26;;;;;;;1.83;1.30;;;17.70;99.90;;;;;;5051783;28;20460;-69
2022/09/15 01:57:53;;;;;;;1.87;1.50;;;17.70;99.90;;;;;;5051355;28;20502;-69
2022/09/15 02:00:21;;;;;;;2.97;1.30;;;17.70;99.90;;;;;;5051031;28;20459;-69
2022/09/15 02:02:53;;;;;;;2.27;1.30;;;17.60;99.90;;;;;;5051115;28;20480;-69
2022/09/15 02:05:25;;;;;;;1.50;1.30;;;17.60;99.90;;;;;;5051333;28;20464;-69
2022/09/15 02:07:56;;;;;;;1.60;1.50;;;17.60;99.90;;;;;;5051113;28;20983;-69
2022/09/15 02:10:31;;;;;;;1.50;1.40;;;17.60;99.90;;;;;;5050695;28;20999;-69
2022/09/15 02:13:05;;;;;;;2.60;1.40;;;17.60;99.90;;;;;;5050940;28;20852;-69
2022/09/15 02:15:42;;;;;;;2.13;1.20;;;17.60;99.90;;;;;;5051177;28;20495;-69
2022/09/15 02:18:13;;;;;;;1.30;1.20;;;17.50;99.90;;;;;;5050836;28;20546;-70
2022/09/15 02:20:45;;;;;;;1.50;1.40;;;17.50;99.90;;;;;;5050744;28;21050;-69
2022/09/15 02:23:18;;;;;;;1.47;1.33;;;17.50;99.90;;;;;;5051086;28;20491;-70
2022/09/15 02:25:50;;;;;;;1.30;1.20;;;17.50;99.90;;;;;;5050839;28;20463;-70
2022/09/15 02:28:22;;;;;;;1.20;1.10;;;17.50;99.90;;;;;;5050658;28;20467;-69
2022/09/15 02:30:53;;;;;;;2.50;1.27;;;17.50;99.90;;;;;;5050743;28;20457;-70
2022/09/15 02:33:23;;;;;;;1.10;1.00;;;17.40;99.90;;;;;;5050808;28;20475;-70
2022/09/15 02:35:52;;;;;;;1.40;1.30;;;17.40;99.90;;;;;;5050353;28;20801;-69
2022/09/15 02:38:18;;;;;;;2.10;1.13;;;17.50;99.90;;;;;;5050407;28;20861;-69
2022/09/15 02:40:46;;;;;;;1.70;1.23;;;17.50;99.90;;;;;;5050967;28;20455;-69
2022/09/15 02:43:16;;;;;;;2.70;1.50;;;17.50;99.90;;;;;;5050646;28;20495;-70
2022/09/15 02:45:43;;;;;;;1.23;1.13;;;17.50;99.90;;;;;;5050731;28;20466;-69
2022/09/15 02:48:11;;;;;;;1.50;1.40;;;17.50;99.90;;;;;;5050185;28;20463;-69
2022/09/15 02:50:40;;;;;;;1.93;1.47;;;17.50;99.90;;;;;;5050479;28;20483;-70
2022/09/15 02:53:07;;;;;;;2.43;1.43;;;17.50;99.90;;;;;;5050432;28;20476;-70
2022/09/15 02:55:34;;;;;;;1.53;1.43;;;17.50;99.90;;;;;;5050594;28;20963;-69
2022/09/15 02:58:01;;;;;;;1.23;1.10;;;17.50;99.90;;;;;;5050484;28;20518;-70
2022/09/15 03:00:29;;;;;;;1.60;1.10;;;17.50;99.90;;;;;;5050340;28;20456;-70
2022/09/15 03:02:57;;;;;;;1.87;1.67;;;17.50;99.90;;;;;;5050211;28;20483;-70
2022/09/15 03:05:27;;;;;;;5.20;1.70;;;17.40;99.90;;;;;;5050526;28;20840;-70
2022/09/15 03:07:54;;;;;;;1.20;1.10;;;17.40;99.90;;;;;;5050430;28;20467;-70
2022/09/15 03:10:22;;;;;;;2.90;1.80;;;17.40;99.90;;;;;;5049960;28;20484;-70
2022/09/15 03:12:50;;;;;;;1.40;1.20;;;17.40;99.90;;;;;;5050214;28;20483;-70
2022/09/15 03:15:19;;;;;;;1.70;1.50;;;17.30;99.90;;;;;;5050448;28;20966;-70
2022/09/15 03:17:47;;;;;;;3.90;1.30;;;17.30;99.90;;;;;;5050309;28;21002;-69
2022/09/15 03:20:16;;;;;;;1.20;1.10;;;17.30;99.90;;;;;;5049844;28;20456;-69
2022/09/15 03:22:44;;;;;;;2.40;2.20;;;17.30;99.90;;;;;;5050184;28;20484;-69
2022/09/15 03:25:12;;;;;;;1.30;1.20;;;17.30;99.90;;;;;;5053202;28;20460;-70
2022/09/15 03:27:39;;;;;;;1.67;1.57;;;17.30;99.90;;;;;;5054615;28;20464;-70
2022/09/15 03:30:07;;;;;;;3.90;1.50;;;17.30;99.90;;;;;;5053623;28;20483;-71
2022/09/15 03:32:34;;;;;;;1.53;1.33;;;17.30;99.90;;;;;;5054145;28;20507;-71
2022/09/15 03:35:01;;;;;;;1.23;1.10;;;17.20;99.90;;;;;;5021469;28;20458;-70
2022/09/15 03:37:27;;;;;;;1.20;1.00;;;17.30;99.90;;;;;;5022709;28;20456;-70
2022/09/15 03:39:55;;;;;;;1.87;1.20;;;17.30;99.90;;;;;;5023322;28;20967;-70
2022/09/15 03:42:22;;;;;;;1.20;0.90;;;17.20;99.90;;;;;;5022239;28;20465;-70
2022/09/15 03:44:49;;;;;;;1.70;1.33;;;17.20;99.90;;;;;;5022354;28;20456;-70
2022/09/15 03:47:16;;;;;;;2.77;1.60;;;17.20;99.90;;;;;;5023789;28;20467;-69
2022/09/15 03:49:42;;;;;;;1.77;1.67;;;17.20;99.90;;;;;;5021477;28;20508;-70
2022/09/15 03:52:09;;;;;;;2.70;1.40;;;17.10;99.90;;;;;;5022082;28;20469;-71
2022/09/15 03:54:36;;;;;;;1.70;1.47;;;17.10;99.90;;;;;;5023991;28;20492;-70
2022/09/15 03:57:04;;;;;;;1.97;1.43;;;17.10;99.90;;;;;;5015227;28;20457;-70
2022/09/15 03:59:31;;;;;;;2.03;1.00;;;17.10;99.90;;;;;;5012645;28;20450;-71
2022/09/15 04:01:58;;;;;;;1.07;0.97;;;17.10;99.90;;;;;;5021799;28;20465;-70
2022/09/15 04:04:24;;;;;;;1.20;1.10;;;17.10;99.90;;;;;;5033224;28;20480;-70
2022/09/15 04:06:52;;;;;;;2.00;1.63;;;17.00;99.90;;;;;;5025252;28;20466;-70
2022/09/15 04:09:20;;;;;;;1.30;1.20;;;17.00;99.90;;;;;;5026843;28;20477;-70
2022/09/15 04:11:46;;;;;;;1.40;1.30;;;17.00;99.90;;;;;;5023993;28;20458;-71
2022/09/15 04:14:15;;;;;;;1.43;1.33;;;16.90;99.90;;;;;;5021658;28;21026;-71
2022/09/15 04:16:41;;;;;;;1.50;1.40;;;16.90;99.90;;;;;;5021397;28;20458;-71
2022/09/15 04:19:08;;;;;;;1.40;1.27;;;16.90;99.90;;;;;;5021273;28;20472;-71
2022/09/15 04:21:35;;;;;;;1.43;1.13;;;17.00;99.90;;;;;;5023134;28;20923;-71
2022/09/15 04:24:03;;;;;;;1.97;1.37;;;16.90;99.90;;;;;;5020423;28;20488;-69
2022/09/15 04:26:32;;;;;;;2.93;1.37;;;16.90;99.90;;;;;;5017831;28;20560;-68
2022/09/15 04:28:59;;;;;;;1.57;1.20;;;16.90;99.90;;;;;;5011852;28;20508;-68
2022/09/15 04:31:28;;;;;;;3.33;1.43;;;16.90;99.90;;;;;;5013213;28;20458;-69
2022/09/15 04:33:55;;;;;;;1.60;1.50;;;16.90;99.90;;;;;;5013129;28;20486;-69
2022/09/15 04:36:24;;;;;;;2.30;1.50;;;16.90;99.90;;;;;;5012116;28;20512;-68
2022/09/15 04:38:51;;;;;;;3.23;1.30;;;16.90;99.90;;;;;;5012611;28;20466;-68
2022/09/15 04:41:19;;;;;;;1.43;1.33;;;16.90;99.90;;;;;;5013283;28;20453;-68
2022/09/15 04:43:46;;;;;;;1.10;1.00;;;16.90;99.90;;;;;;5012964;28;20482;-69
2022/09/15 04:46:14;;;;;;;1.50;1.40;;;16.90;99.90;;;;;;5013371;28;20863;-68
2022/09/15 04:48:42;;;;;;;1.80;1.47;;;16.90;99.90;;;;;;5012289;28;20462;-68
2022/09/15 04:51:12;;;;;;;1.63;1.10;;;16.90;99.90;;;;;;5013062;28;20489;-68
2022/09/15 04:53:39;;;;;;;1.43;1.23;;;16.90;99.90;;;;;;5012926;28;20482;-69
2022/09/15 04:56:08;;;;;;;1.50;1.13;;;16.90;99.90;;;;;;5013142;28;20458;-68
2022/09/15 04:58:39;;;;;;;1.50;1.30;;;16.90;99.90;;;;;;5012347;28;20469;-68
2022/09/15 05:01:10;;;;;;;4.33;1.50;;;16.90;99.90;;;;;;5012769;28;20465;-69
2022/09/15 05:03:38;;;;;;;1.60;1.00;;;16.90;99.90;;;;;;5012682;28;20482;-68
2022/09/15 05:06:08;;;;;;;1.50;1.20;;;16.90;99.90;;;;;;5012884;28;20462;-68
2022/09/15 05:08:35;;;;;;;1.90;1.53;;;16.90;99.90;;;;;;5012230;28;20462;-68
2022/09/15 05:11:05;;;;;;;1.30;1.20;;;16.90;99.90;;;;;;5012545;28;20848;-68
2022/09/15 05:13:31;;;;;;;1.47;1.00;;;16.90;99.90;;;;;;5012652;28;20488;-69
2022/09/15 05:16:03;;;;;;;2.00;1.20;;;16.90;99.90;;;;;;5012414;28;20473;-68
2022/09/15 05:18:30;;;;;;;1.50;1.30;;;16.90;99.90;;;;;;5011896;28;20477;-68
2022/09/15 05:20:58;;;;;;;1.30;1.17;;;16.90;99.90;;;;;;5012240;28;20462;-68
2022/09/15 05:23:26;;;;;;;2.07;1.20;;;17.00;99.90;;;;;;5012418;28;20495;-68
2022/09/15 05:25:57;;;;;;;1.50;0.97;;;17.00;99.90;;;;;;5012473;28;20461;-69
2022/09/15 05:28:24;;;;;;;3.40;1.33;;;16.90;99.90;;;;;;5011954;28;20536;-68
2022/09/15 05:30:51;;;;;;;1.43;1.10;;;16.90;99.90;;;;;;5012130;28;21020;-68
2022/09/15 05:33:19;;;;;;;1.60;1.10;;;17.00;99.90;;;;;;5012205;28;20547;-69
2022/09/15 05:35:52;;;;;;;1.57;1.40;;;17.00;99.90;;;;;;5011896;28;20508;-68
2022/09/15 05:38:19;;;;;;;1.63;1.40;;;17.00;99.90;;;;;;5011702;28;20469;-69
2022/09/15 05:40:48;;;;;;;1.27;1.13;;;17.00;99.90;;;;;;5011919;28;20462;-68
2022/09/15 05:43:15;;;;;;;1.20;1.10;;;17.00;99.90;;;;;;5011805;28;21037;-68
2022/09/15 05:45:42;;;;;;;2.10;1.30;;;17.00;99.90;;;;;;5011853;28;20473;-68
2022/09/15 05:48:09;;;;;;;1.37;1.00;;;17.00;99.90;;;;;;5011126;28;20524;-68
2022/09/15 05:50:36;;;;;;;1.17;1.07;;;17.00;99.90;;;;;;5011772;28;20490;-69
2022/09/15 05:53:03;;;;;;;1.90;1.30;;;17.10;99.90;;;;;;5011632;28;20922;-68
2022/09/15 05:55:30;;;;;;;1.97;0.90;;;17.00;99.90;;;;;;5012004;28;20560;-68
2022/09/15 05:57:58;;;;;;;2.40;1.30;;;17.10;99.90;;;;;;5011676;28;20863;-69
2022/09/15 06:00:24;;;;;;;1.73;1.00;;;17.10;99.90;;;;;;5011084;28;20472;-68
2022/09/15 06:05:19;;;;;;;1.33;1.03;;;17.10;99.90;;;;;;5044964;28;20476;-65
2022/09/15 06:07:46;;;;;;;1.10;1.00;;;17.00;99.90;;;;;;5031350;28;20457;-65
2022/09/15 06:10:12;;;;;;;1.20;1.10;;;17.10;99.90;;;;;;5030515;28;20511;-65
2022/09/15 06:12:39;;;;;;;1.30;1.20;;;17.10;99.90;;;;;;5031223;28;20489;-67
2022/09/15 06:15:08;;;;;;;1.50;1.40;;;17.10;99.90;;;;;;5050720;28;20467;-68
2022/09/15 06:17:35;;;;;;;1.13;0.97;;;17.10;99.90;;;;;;5051440;28;20878;-67
2022/09/15 06:20:04;;;;;;;2.70;1.20;;;17.10;99.90;;;;;;5049808;28;20460;-68
2022/09/15 06:22:31;;;;;;;1.80;1.13;;;17.10;99.90;;;;;;5051194;28;20515;-68
2022/09/15 06:24:58;;;;;;;1.03;0.90;;;17.10;99.90;;;;;;5051226;28;21040;-68
2022/09/15 06:27:26;;;;;;;1.40;1.00;;;17.10;99.90;;;;;;5051353;28;20470;-68
2022/09/15 06:29:52;;;;;;;1.20;1.00;;;17.10;99.90;;;;;;5050352;28;20456;-68
2022/09/15 06:32:21;;;;;;;1.50;1.10;;;17.10;99.90;;;;;;5034469;28;20468;-68
2022/09/15 06:34:47;;;;;;;1.03;0.93;;;17.00;99.90;;;;;;5029548;28;20807;-68
2022/09/15 06:37:15;;;;;;;1.67;1.17;;;17.00;99.90;;;;;;5030352;28;20461;-68
2022/09/15 06:39:43;;;;;;;1.00;0.90;;;17.10;99.90;;;;;;5029801;28;20586;-68
2022/09/15 06:42:10;;;;;;;1.50;1.10;;;17.10;99.90;;;;;;5030284;28;20453;-68
2022/09/15 06:44:37;;;;;;;1.90;1.67;;;17.10;99.90;;;;;;5030733;28;20456;-68
2022/09/15 06:47:04;;;;;;;1.63;1.10;;;17.20;99.90;;;;;;5029831;28;20492;-68
2022/09/15 06:49:32;;;;;;;1.10;1.00;;;17.10;99.90;;;;;;5030067;28;20492;-66
2022/09/15 06:52:01;;;;;;;1.13;1.03;;;17.20;99.90;;;;;;5030026;28;20480;-65
2022/09/15 06:54:28;;;;;;;1.30;1.10;;;17.20;99.90;;;;;;5030350;28;20591;-65
2022/09/15 06:56:55;;;;;;;1.10;1.00;;;17.20;99.90;;;;;;5030131;28;20460;-65
2022/09/15 06:59:22;;;;;;;1.57;0.90;;;17.20;99.90;;;;;;5029353;28;20817;-65
2022/09/15 07:01:52;;;;;;;1.40;1.30;;;17.20;99.90;;;;;;5029649;28;20464;-65
2022/09/15 07:04:19;;;;;;;1.53;0.97;;;17.20;99.90;;;;;;5030660;28;20491;-65
2022/09/15 07:06:47;;;;;;;1.27;1.00;;;17.20;99.90;;;;;;5030230;28;20468;-66
2022/09/15 07:09:14;;;;;;;1.80;1.00;;;17.20;99.90;;;;;;5029580;28;20457;-65
2022/09/15 07:11:42;;;;;;;1.00;0.90;;;17.30;99.90;;;;;;5030388;28;21156;-65
2022/09/15 07:14:10;;;;;;;1.37;1.10;;;17.20;99.90;;;;;;5029975;28;21019;-65
2022/09/15 07:16:37;;;;;;;1.30;1.20;;;17.30;99.90;;;;;;5030261;28;20461;-65
2022/09/15 07:19:04;;;;;;;1.10;1.00;;;17.30;99.90;;;;;;5029121;28;21467;-65
2022/09/15 07:21:31;;;;;;;1.60;1.20;;;17.30;99.90;;;;;;5030166;28;20457;-65
2022/09/15 07:23:59;;;;;;;1.50;1.27;;;17.30;99.90;;;;;;5029112;28;20481;-65
2022/09/15 07:26:27;;;;;;;0.90;0.80;;;17.30;99.90;;;;;;5029998;28;21096;-65
2022/09/15 07:28:55;;;;;;;1.10;1.00;;;17.30;99.90;;;;;;5029037;28;21121;-65
2022/09/15 07:31:25;;;;;;;1.30;1.00;;;17.30;99.90;;;;;;5029317;28;20495;-65
2022/09/15 07:33:52;;;;;;;2.10;1.00;;;17.40;99.90;;;;;;5038447;28;20848;-65
2022/09/15 07:36:19;;;;;;;1.20;1.07;;;17.40;99.90;;;;;;5050193;28;20467;-65
2022/09/15 07:38:47;;;;;;;2.13;0.90;;;17.40;99.90;;;;;;5049366;28;20958;-65
2022/09/15 07:41:18;;;;;;;1.20;1.00;;;17.40;99.90;;;;;;5050367;28;20551;-65
2022/09/15 07:43:46;;;;;;;1.20;0.90;;;17.40;99.90;;;;;;5049955;28;20537;-65
2022/09/15 07:46:12;;;;;;;1.10;0.90;;;17.40;99.90;;;;;;5050063;28;20563;-65
2022/09/15 07:48:39;;;;;;;1.27;1.13;;;17.30;99.90;;;;;;5049797;28;20977;-65
2022/09/15 07:51:06;;;;;;;1.00;0.80;;;17.30;99.90;;;;;;5049683;28;20492;-65
2022/09/15 07:53:33;;;;;;;1.93;1.13;;;17.30;99.90;;;;;;5049657;28;20487;-65
2022/09/15 07:55:59;;;;;;;1.63;1.00;;;17.30;99.90;;;;;;5049861;28;20465;-65
2022/09/15 07:58:28;;;;;;;1.70;1.00;;;17.30;99.90;;;;;;5049259;28;20463;-65
2022/09/15 08:00:55;;;;;;;1.07;0.93;;;17.30;99.90;;;;;;5049657;28;20488;-66
2022/09/15 08:03:22;;;;;;;1.20;1.03;;;17.30;99.90;;;;;;5044402;28;20488;-65
2022/09/15 08:05:49;;;;;;;1.10;0.97;;;17.30;99.90;;;;;;5034417;28;20539;-66
2022/09/15 08:08:16;;;;;;;1.37;1.00;;;17.30;99.90;;;;;;5049405;28;20463;-65
2022/09/15 08:10:44;;;;;;;1.50;1.20;;;17.30;99.90;;;;;;5045930;28;20495;-65
2022/09/15 08:13:11;;;;;;;1.40;1.20;;;17.30;99.90;;;;;;5049891;28;20488;-65
2022/09/15 08:15:40;;;;;;;1.20;1.03;;;17.30;99.90;;;;;;5043708;28;20463;-65
2022/09/15 08:18:06;;;;;;;1.20;1.03;;;17.30;99.90;;;;;;5034910;28;22099;-65
2022/09/15 08:20:33;;;;;;;1.90;1.77;;;17.30;99.90;;;;;;5052512;28;20460;-65
2022/09/15 08:23:00;;;;;;;1.33;0.90;;;17.30;99.90;;;;;;5052586;28;20857;-65
2022/09/15 08:25:27;;;;;;;2.33;1.40;;;17.30;99.90;;;;;;5052004;28;20475;-65
2022/09/15 08:27:55;;;;;;;1.37;1.27;;;17.30;99.90;;;;;;5052788;28;20464;-65
2022/09/15 08:30:22;;;;;;;1.40;1.30;;;17.30;99.90;;;;;;5052729;28;20468;-65
2022/09/15 08:32:50;;;;;;;1.20;1.10;;;17.30;99.90;;;;;;5052403;28;20483;-66
2022/09/15 08:35:18;;;;;;;1.23;1.10;;;17.40;99.90;;;;;;5053295;28;20832;-66
2022/09/15 08:37:45;;;;;;;1.27;1.10;;;17.40;99.90;;;;;;5052911;28;20467;-65
2022/09/15 08:40:17;;;;;;;1.23;1.13;;;17.40;99.90;;;;;;5052128;28;20471;-65
2022/09/15 08:42:46;;;;;;;1.67;1.20;;;17.50;99.90;;;;;;5052937;28;20476;-65
2022/09/15 08:45:20;;;;;;;2.03;1.23;;;17.50;99.90;;;;;;5053023;28;20466;-65
2022/09/15 08:47:50;;;;;;;1.40;1.30;;;17.50;99.90;;;;;;5052548;28;20464;-68
2022/09/15 08:50:26;;;;;;;1.40;1.27;;;17.50;99.90;;;;;;5052542;28;20559;-68
2022/09/15 08:52:58;;;;;;;1.30;1.17;;;17.60;99.90;;;;;;5052836;28;20467;-68
2022/09/15 08:55:35;;;;;;;4.70;1.20;;;17.60;99.90;;;;;;5052750;28;20460;-68
2022/09/15 08:58:02;;;;;;;1.40;1.23;;;17.60;99.90;;;;;;5052007;28;20456;-68
2022/09/15 09:00:30;;;;;;;1.23;1.13;;;17.60;99.90;;;;;;5039158;28;20461;-65
2022/09/15 09:03:40;;;;;;;4.20;1.30;;;17.60;99.90;;;;;;5031037;28;20852;-66
2022/09/15 09:06:16;;;;;;;3.00;1.10;;;17.60;99.90;;;;;;5027004;28;20951;-65
2022/09/15 09:09:08;;;;;;;1.27;0.97;;;17.70;99.90;;;;;;5031076;28;21047;-66
2022/09/15 09:11:48;;;;;;;1.70;0.93;;;17.70;99.90;;;;;;5032052;28;20922;-68
2022/09/15 09:14:24;;;;;;;1.27;1.17;;;17.70;99.90;;;;;;5031665;28;20485;-68
2022/09/15 09:17:03;;;;;;;1.60;1.50;;;17.80;99.90;;;;;;5032096;28;20475;-68
2022/09/15 09:19:51;;;;;;;1.60;0.97;;;17.70;99.90;;;;;;5031865;28;20468;-67
2022/09/15 09:22:21;;;;;;;1.40;1.17;;;17.80;99.90;;;;;;5031521;28;20575;-68
2022/09/15 09:24:51;;;;;;;0.80;0.77;;;17.80;99.90;;;;;;5031807;28;20544;-67
2022/09/15 09:27:21;;;;;;;1.10;1.00;;;17.80;99.90;;;;;;5031950;28;20461;-67
2022/09/15 09:29:51;;;;;;;2.23;1.00;;;17.90;99.90;;;;;;5031232;28;20460;-68
2022/09/15 09:32:23;;;;;;;1.40;1.20;;;17.90;99.90;;;;;;5031386;28;20492;-67
2022/09/15 09:34:58;;;;;;;1.43;1.30;;;18.00;99.90;;;;;;5031808;28;20469;-68
2022/09/15 09:37:25;;;;;;;1.47;1.00;;;18.10;99.90;;;;;;5032118;28;20846;-68
2022/09/15 09:39:52;;;;;;;1.20;0.90;;;18.10;99.90;;;;;;5030483;28;20815;-67
2022/09/15 09:42:21;;;;;;;1.27;1.10;;;18.10;99.90;;;;;;5031676;28;20464;-68
2022/09/15 09:44:48;;;;;;;1.43;1.00;;;18.10;99.90;;;;;;5031898;28;20468;-68
2022/09/15 09:47:16;;;;;;;1.10;1.00;;;18.00;99.90;;;;;;5031180;28;20472;-68
2022/09/15 09:49:46;;;;;;;1.20;1.10;;;18.00;99.90;;;;;;5030560;28;20461;-68
2022/09/15 09:52:32;;;;;;;1.00;0.90;;;18.00;99.90;;;;;;5030055;28;20489;-68
2022/09/15 09:55:00;;;;;;;1.00;0.90;;;17.90;99.90;;;;;;5031002;28;20583;-68
2022/09/15 09:57:30;;;;;;;1.30;1.10;;;18.00;99.90;;;;;;5030902;28;20461;-68
2022/09/15 09:59:56;;;;;;;1.07;0.97;;;18.00;99.90;;;;;;5030583;28;20468;-67
2022/09/15 10:02:24;;;;;;;1.97;1.30;;;18.10;99.90;;;;;;5030867;28;20484;-68
2022/09/15 10:04:53;;;;;;;1.37;1.00;;;18.10;99.90;;;;;;5030879;28;20971;-67
2022/09/15 10:07:22;;;;;;;1.30;1.10;;;18.20;99.90;;;;;;5031275;28;20465;-67
2022/09/15 10:09:53;;;;;;;1.37;1.10;;;18.30;99.90;;;;;;5030245;28;20492;-67
2022/09/15 10:12:23;;;;;;;1.57;1.40;;;18.30;99.90;;;;;;5031262;28;20485;-66
2022/09/15 10:14:53;;;;;;;1.40;1.13;;;18.30;99.90;;;;;;5030310;28;20496;-65
2022/09/15 10:17:22;;;;;;;1.30;1.00;;;18.20;99.90;;;;;;5050376;28;20468;-66
2022/09/15 10:19:51;;;;;;;2.07;1.20;;;18.20;99.90;;;;;;5049570;28;20464;-65
2022/09/15 10:22:29;;;;;;;2.03;1.07;;;18.20;99.90;;;;;;5050165;28;20510;-67
2022/09/15 10:24:56;;;;;;;0.90;0.70;;;18.10;99.90;;;;;;5050112;28;20467;-68
2022/09/15 10:27:29;;;;;;;0.90;0.70;;;18.00;99.90;;;;;;5050088;28;20459;-67
2022/09/15 10:29:58;;;;;;;1.00;0.73;;;17.80;99.90;;;;;;5049459;28;20456;-67
2022/09/15 10:32:27;;;;;;;0.80;0.70;;;17.70;99.90;;;;;;5049989;28;20495;-67
2022/09/15 10:35:03;;;;;;;0.90;0.80;;;17.60;99.90;;;;;;5050076;28;20460;-67
2022/09/15 10:37:36;;;;;;;0.90;0.70;;;17.50;99.90;;;;;;5039955;28;20885;-67
2022/09/15 10:40:19;;;;;;;0.90;0.80;;;17.30;99.90;;;;;;5029465;28;20476;-67
2022/09/15 10:42:51;;;;;;;1.00;0.80;;;17.20;99.90;;;;;;5030851;28;20483;-67
2022/09/15 10:45:25;;;;;;;1.23;0.80;;;17.10;99.90;;;;;;5033393;28;20460;-67
2022/09/15 10:48:09;;;;;;;0.90;0.70;;;17.00;99.90;;;;;;5049804;28;20488;-67
2022/09/15 10:50:48;;;;;;;0.80;0.70;;;16.90;99.90;;;;;;5049606;28;20978;-67
2022/09/15 10:53:27;;;;;;;0.87;0.80;;;16.90;99.90;;;;;;5049374;28;20862;-67
2022/09/15 10:56:01;;;;;;;1.00;0.80;;;16.90;99.90;;;;;;5049615;28;20466;-68
2022/09/15 10:58:44;;;;;;;0.83;0.73;;;16.80;99.90;;;;;;5049606;28;20473;-67
2022/09/15 11:01:26;;;;;;;0.93;0.70;;;16.70;99.90;;;;;;5049669;28;20467;-68
2022/09/15 11:04:10;;;;;;;0.90;0.70;;;16.70;99.90;;;;;;5049277;28;20492;-67
2022/09/15 11:06:44;;;;;;;1.23;0.80;;;16.70;99.90;;;;;;5049513;28;20503;-67
2022/09/15 11:09:20;;;;;;;0.90;0.70;;;16.70;99.90;;;;;;5049542;28;20500;-67
2022/09/15 11:11:58;;;;;;;0.90;0.80;;;16.60;99.90;;;;;;5049609;28;20854;-68
2022/09/15 11:14:52;;;;;;;0.90;0.80;;;16.60;99.90;;;;;;5050027;28;21046;-67
2022/09/15 11:17:30;;;;;;;1.10;1.00;;;16.50;99.90;;;;;;5048378;28;20464;-67
2022/09/15 11:20:13;;;;;;;0.90;0.80;;;16.40;99.90;;;;;;5049113;28;20456;-67
2022/09/15 11:22:46;;;;;;;1.93;1.37;;;16.30;99.90;;;;;;5049632;28;21013;-67
2022/09/15 11:25:18;;;;;;;1.83;1.43;;;16.20;99.90;;;;;;5049853;28;20465;-67
2022/09/15 11:27:52;;;;;;;1.90;1.50;;;16.10;99.90;;;;;;5049358;28;20930;-67
2022/09/15 11:30:21;;;;;;;1.63;1.53;;;16.00;99.90;;;;;;5049072;28;20464;-67
2022/09/15 11:32:54;;;;;;;1.20;1.10;;;16.00;99.90;;;;;;5049493;28;20866;-67
2022/09/15 11:35:34;;;;;;;1.20;1.10;;;16.00;99.90;;;;;;5049885;28;20890;-67
2022/09/15 11:38:11;;;;;;;1.50;1.33;;;15.80;99.90;;;;;;5049406;28;20499;-68
2022/09/15 11:40:44;;;;;;;2.17;1.50;;;15.80;99.90;;;;;;5049409;28;20844;-68
2022/09/15 11:43:17;;;;;;;2.90;2.03;;;15.80;99.90;;;;;;5050457;28;20492;-67
2022/09/15 11:45:49;;;;;;;2.10;1.90;;;15.70;99.90;;;;;;5051294;28;20468;-67
2022/09/15 11:48:21;;;;;;;1.37;1.27;;;15.70;99.90;;;;;;5053255;28;20471;-67
2022/09/15 11:50:52;;;;;;;2.00;1.20;;;15.60;99.90;;;;;;5052984;28;20537;-67
2022/09/15 11:53:26;;;;;;;1.70;1.60;;;15.60;99.90;;;;;;5053527;28;20495;-67
2022/09/15 11:56:00;;;;;;;1.47;1.37;;;15.70;99.90;;;;;;5053569;28;20467;-67
2022/09/15 11:58:33;;;;;;;1.50;1.40;;;15.70;99.90;;;;;;5052844;28;20458;-67
2022/09/15 12:01:07;;;;;;;1.70;1.60;;;15.70;99.90;;;;;;5052996;28;20460;-67
2022/09/15 12:03:38;;;;;;;1.60;1.50;;;15.60;99.90;;;;;;5053448;28;20482;-67
2022/09/15 12:06:12;;;;;;;3.30;1.93;;;15.60;99.90;;;;;;5052316;28;20467;-67
2022/09/15 12:08:42;;;;;;;2.20;1.77;;;15.60;99.90;;;;;;5052593;28;20471;-67
2022/09/15 12:11:16;;;;;;;1.90;1.70;;;15.60;99.90;;;;;;5053248;28;20852;-67
2022/09/15 12:13:44;;;;;;;2.27;1.70;;;15.60;99.90;;;;;;5052750;28;20496;-67
2022/09/15 12:16:12;;;;;;;2.53;1.80;;;15.60;99.90;;;;;;5053148;28;20472;-67
2022/09/15 12:18:46;;;;;;;2.23;1.70;;;15.60;99.90;;;;;;5051807;28;20487;-67
2022/09/15 12:21:18;;;;;;;2.40;1.90;;;15.50;99.90;;;;;;5052566;28;20468;-67
2022/09/15 12:23:51;;;;;;;2.03;1.63;;;15.50;99.90;;;;;;5052839;28;20569;-68
2022/09/15 12:26:22;;;;;;;1.70;1.60;;;15.50;99.90;;;;;;5053106;28;20463;-67
2022/09/15 12:28:54;;;;;;;2.30;2.10;;;15.50;99.90;;;;;;5051602;28;20460;-67
2022/09/15 12:31:28;;;;;;;2.03;1.60;;;15.50;99.90;;;;;;5052746;28;20827;-67
2022/09/15 12:33:57;;;;;;;2.50;2.17;;;15.50;99.90;;;;;;5052536;28;20498;-67
2022/09/15 12:36:44;;;;;;;3.20;1.80;;;15.60;99.90;;;;;;5052442;28;20463;-67
2022/09/15 12:39:27;;;;;;;2.00;1.80;;;15.60;99.90;;;;;;5052057;28;20889;-67
2022/09/15 12:42:06;;;;;;;2.30;1.90;;;15.70;99.90;;;;;;5051788;28;20460;-67
2022/09/15 12:44:35;;;;;;;2.23;2.07;;;15.80;99.90;;;;;;5052679;28;20523;-67
2022/09/15 12:47:05;;;;;;;1.77;1.67;;;15.70;99.90;;;;;;5052261;28;20464;-65
2022/09/15 12:49:35;;;;;;;2.30;1.90;;;15.60;99.90;;;;;;5052032;28;20464;-67
2022/09/15 12:52:06;;;;;;;2.47;2.27;;;15.50;99.90;;;;;;5051778;28;20487;-67
2022/09/15 12:54:36;;;;;;;2.23;1.90;;;15.50;99.90;;;;;;5051876;28;20563;-67
2022/09/15 12:57:05;;;;;;;2.50;2.13;;;15.40;99.90;;;;;;5050953;28;20471;-67
2022/09/15 12:59:32;;;;;;;2.83;2.30;;;15.40;99.90;;;;;;5051222;28;20509;-67
2022/09/15 13:02:00;;;;;;;4.00;2.40;;;15.50;99.90;;;;;;5052263;28;20467;-67
2022/09/15 13:04:52;;;;;;;1.83;1.73;;;15.60;99.90;;;;;;5052008;28;20579;-67
2022/09/15 13:07:37;;;;;;;2.20;2.00;;;15.60;99.90;;;;;;5051769;28;20456;-67
2022/09/15 13:10:31;;;;;;;2.40;2.20;;;15.70;99.90;;;;;;5050839;28;20551;-67